createdAt,value
2024-01-06T00:00:38.431Z,92603.81
2024-01-06T00:05:41.520Z,92591.09
2024-01-06T00:10:43.116Z,92591.03
2024-01-06T00:15:44.801Z,92593.22
2024-01-06T00:20:47.685Z,92599.34
2024-01-06T00:25:49.200Z,92596.59
2024-01-06T00:30:50.802Z,92599.13
2024-01-06T00:35:53.878Z,92606.81
2024-01-06T00:40:55.369Z,92607.22
2024-01-06T00:45:57.162Z,92601.59
2024-01-06T00:51:00.167Z,92602.38
2024-01-06T00:56:01.649Z,92608.69
2024-01-06T01:01:03.893Z,92613.84
2024-01-06T01:06:07.502Z,92620.91
2024-01-06T01:11:09.079Z,92611.84
2024-01-06T01:16:10.702Z,92618.25
2024-01-06T01:21:13.684Z,92614.09
2024-01-06T01:26:15.302Z,92621.00
2024-01-06T01:31:17.009Z,92624.28
2024-01-06T01:36:19.951Z,92627.84
2024-01-06T01:41:21.541Z,92631.88
2024-01-06T01:46:23.184Z,92626.66
2024-01-06T01:51:29.850Z,92637.84
2024-01-06T01:56:32.871Z,92651.53
2024-01-06T02:01:35.212Z,92648.38
2024-01-06T02:06:38.339Z,92647.88
2024-01-06T02:11:39.904Z,92648.31
2024-01-06T02:16:41.413Z,92648.72
2024-01-06T02:21:45.367Z,92658.63
2024-01-06T02:26:48.276Z,92662.13
2024-01-06T02:31:49.843Z,92674.38
2024-01-06T02:36:51.509Z,92674.38
2024-01-06T02:41:54.438Z,92675.50
2024-01-06T02:46:55.985Z,92678.72
2024-01-06T02:51:57.550Z,92675.75
2024-01-06T02:57:00.363Z,92673.91
2024-01-06T03:02:03.141Z,92671.53
2024-01-06T03:07:04.672Z,92671.16
2024-01-06T03:12:08.042Z,92680.28
2024-01-06T03:17:09.641Z,92685.41
2024-01-06T03:22:11.193Z,92684.53
2024-01-06T03:27:14.126Z,92690.09
2024-01-06T03:32:15.712Z,92683.75
2024-01-06T03:37:17.352Z,92677.63
2024-01-06T03:42:20.356Z,92679.75
2024-01-06T03:47:22.137Z,92684.44
2024-01-06T03:52:23.756Z,92684.44
2024-01-06T03:57:26.790Z,92682.09
2024-01-06T04:02:28.351Z,92686.25
2024-01-06T04:07:29.991Z,92680.28
2024-01-06T04:12:32.872Z,92689.06
2024-01-06T04:17:34.502Z,92693.81
2024-01-06T04:22:36.018Z,92701.38
2024-01-06T04:27:38.904Z,92710.47
2024-01-06T04:32:40.588Z,92712.41
2024-01-06T04:37:42.271Z,92716.31
2024-01-06T04:42:45.280Z,92718.63
2024-01-06T04:47:46.924Z,92714.66
2024-01-06T04:52:49.015Z,92720.22
2024-01-06T04:57:51.876Z,92725.84
2024-01-06T05:02:53.439Z,92719.94
2024-01-06T05:07:54.996Z,92730.47
2024-01-06T05:12:57.897Z,92744.91
2024-01-06T05:17:59.567Z,92743.19
2024-01-06T05:23:01.261Z,92746.75
2024-01-06T05:28:04.662Z,92758.09
2024-01-06T05:33:06.336Z,92747.41
2024-01-06T05:38:07.907Z,92743.44
2024-01-06T05:43:10.875Z,92746.38
2024-01-06T05:48:12.763Z,92751.75
2024-01-06T05:53:14.439Z,92758.72
2024-01-06T05:58:17.442Z,92763.75
2024-01-06T06:03:19.088Z,92763.38
2024-01-06T06:08:20.715Z,92767.72
2024-01-06T06:13:23.607Z,92778.38
2024-01-06T06:18:25.289Z,92772.34
2024-01-06T06:23:27.215Z,92788.88
2024-01-06T06:28:30.041Z,92792.44
2024-01-06T06:33:31.959Z,92802.66
2024-01-06T06:38:33.670Z,92821.22
2024-01-06T06:43:36.488Z,92812.94
2024-01-06T06:48:38.025Z,92812.41
2024-01-06T06:53:39.545Z,92821.78
2024-01-06T06:58:42.470Z,92817.88
2024-01-06T07:03:44.114Z,92819.47
2024-01-06T07:08:45.778Z,92825.69
2024-01-06T07:13:48.899Z,92830.28
2024-01-06T07:18:50.600Z,92829.22
2024-01-06T07:23:52.264Z,92835.59
2024-01-06T07:28:55.583Z,92839.84
2024-01-06T07:33:57.223Z,92851.88
2024-01-06T07:38:58.933Z,92856.41
2024-01-06T07:44:01.771Z,92867.38
2024-01-06T07:49:03.423Z,92853.81
2024-01-06T07:54:05.191Z,92857.97
2024-01-06T07:59:08.027Z,92864.94
2024-01-06T08:04:09.723Z,92868.13
2024-01-06T08:09:11.351Z,92880.44
2024-01-06T08:14:14.289Z,92874.38
2024-01-06T08:19:15.976Z,92877.31
2024-01-06T08:24:17.618Z,92883.53
2024-01-06T08:29:20.643Z,92886.41
2024-01-06T08:34:22.298Z,92882.59
2024-01-06T08:39:23.986Z,92884.13
2024-01-06T08:44:26.941Z,92891.28
2024-01-06T08:49:28.617Z,92894.81
2024-01-06T08:54:30.386Z,92895.69
2024-01-06T08:59:33.267Z,92900.09
2024-01-06T09:04:34.914Z,92903.06
2024-01-06T09:09:36.622Z,92898.34
2024-01-06T09:14:39.637Z,92905.28
2024-01-06T09:19:41.317Z,92902.72
2024-01-06T09:24:43.019Z,92905.59
2024-01-06T09:29:46.029Z,92908.69
2024-01-06T09:34:47.797Z,92920.66
2024-01-06T09:39:49.495Z,92921.31
2024-01-06T09:44:52.624Z,92929.63
2024-01-06T09:49:55.632Z,92935.22
2024-01-06T09:54:58.270Z,92927.25
2024-01-06T10:00:01.724Z,92935.44
2024-01-06T10:05:03.873Z,92930.00
2024-01-06T10:10:08.623Z,92942.59
2024-01-06T10:15:12.903Z,92943.66
2024-01-06T10:20:14.736Z,92941.63
2024-01-06T10:25:16.298Z,92930.59
2024-01-06T10:30:19.311Z,92920.19
2024-01-06T10:35:21.105Z,92923.53
2024-01-06T10:40:22.623Z,92925.59
2024-01-06T10:45:26.237Z,92926.28
2024-01-06T10:50:29.682Z,92918.84
2024-01-06T10:55:32.619Z,92918.16
2024-01-06T11:00:35.663Z,92928.06
2024-01-06T11:05:38.017Z,92922.13
2024-01-06T11:10:42.110Z,92923.03
2024-01-06T11:15:46.352Z,92922.75
2024-01-06T11:21:19.272Z,92929.22
2024-01-06T11:26:21.008Z,92920.47
2024-01-06T11:31:23.993Z,92919.56
2024-01-06T11:36:28.591Z,92917.38
2024-01-06T11:41:49.730Z,92918.09
2024-01-06T11:46:54.502Z,92912.31
2024-01-06T11:51:57.119Z,92901.44
2024-01-06T11:56:58.796Z,92896.41
2024-01-06T12:02:01.736Z,92894.50
2024-01-06T12:07:06.901Z,92886.47
2024-01-06T12:12:09.101Z,92890.63
2024-01-06T12:17:12.898Z,92880.88
2024-01-06T12:22:15.787Z,92892.38
2024-01-06T12:27:18.256Z,92890.53
2024-01-06T12:32:21.406Z,92886.47
2024-01-06T12:37:23.650Z,92883.91
2024-01-06T12:42:25.228Z,92877.63
2024-01-06T12:47:28.343Z,92883.81
2024-01-06T12:52:29.958Z,92876.50
2024-01-06T12:57:31.870Z,92875.31
2024-01-06T13:02:34.741Z,92871.69
2024-01-06T13:07:36.627Z,92870.09
2024-01-06T13:12:38.345Z,92877.16
2024-01-06T13:17:41.371Z,92882.66
2024-01-06T13:22:42.999Z,92878.44
2024-01-06T13:27:44.568Z,92891.59
2024-01-06T13:32:47.573Z,92890.63
2024-01-06T13:37:49.143Z,92904.44
2024-01-06T13:42:51.435Z,92897.34
2024-01-06T13:47:54.461Z,92902.56
2024-01-06T13:52:56.110Z,92901.34
2024-01-06T13:57:57.735Z,92898.06
2024-01-06T14:03:00.782Z,92908.69
2024-01-06T14:08:02.754Z,92912.94
2024-01-06T14:13:04.702Z,92918.44
2024-01-06T14:18:08.006Z,92913.75
2024-01-06T14:23:09.637Z,92915.25
2024-01-06T14:28:11.214Z,92913.03
2024-01-06T14:33:14.146Z,92914.72
2024-01-06T14:38:15.782Z,92915.44
2024-01-06T14:43:17.349Z,92909.78
2024-01-06T14:48:20.339Z,92916.31
2024-01-06T14:53:21.906Z,92922.25
2024-01-06T14:58:23.588Z,92927.34
2024-01-06T15:03:26.521Z,92937.09
2024-01-06T15:08:28.085Z,92942.66
2024-01-06T15:13:29.663Z,92950.41
2024-01-06T15:18:32.960Z,92953.53
2024-01-06T15:23:34.528Z,92959.88
2024-01-06T15:28:36.113Z,92962.53
2024-01-06T15:33:39.153Z,92965.09
2024-01-06T15:38:40.904Z,92968.78
2024-01-06T15:43:42.457Z,92971.69
2024-01-06T15:48:45.629Z,92970.72
2024-01-06T15:53:47.242Z,92969.13
2024-01-06T15:58:49.010Z,92967.19
2024-01-06T16:03:52.129Z,92970.53
2024-01-06T16:08:53.648Z,92967.97
2024-01-06T16:13:55.228Z,92975.56
2024-01-06T16:18:58.178Z,92979.72
2024-01-06T16:23:59.819Z,92978.50
2024-01-06T16:29:01.425Z,92976.19
2024-01-06T16:34:04.356Z,92983.72
2024-01-06T16:39:05.999Z,92990.94
2024-01-06T16:44:07.571Z,92989.34
2024-01-06T16:49:10.527Z,92993.88
2024-01-06T16:54:12.086Z,92998.63
2024-01-06T16:59:13.770Z,92993.31
2024-01-06T17:04:16.918Z,93009.00
2024-01-06T17:09:18.594Z,93008.16
2024-01-06T17:14:20.165Z,93011.50
2024-01-06T17:19:23.114Z,93016.19
2024-01-06T17:24:24.938Z,93012.66
2024-01-06T17:29:26.582Z,93014.16
2024-01-06T17:34:30.256Z,93018.47
2024-01-06T17:39:31.925Z,93020.25
2024-01-06T17:44:33.451Z,93025.59
2024-01-06T17:49:36.460Z,93018.63
2024-01-06T17:54:38.088Z,93039.78
2024-01-06T17:59:39.632Z,93036.59
2024-01-06T18:04:42.659Z,93034.06
2024-01-06T18:09:44.462Z,93044.00
2024-01-06T18:14:46.088Z,93038.50
2024-01-06T18:19:49.007Z,93041.34
2024-01-06T18:24:50.566Z,93040.22
2024-01-06T18:29:52.135Z,93042.13
2024-01-06T18:34:55.113Z,93048.69
2024-01-06T18:39:56.749Z,93050.72
2024-01-06T18:45:04.980Z,93046.00
2024-01-06T18:50:09.156Z,93042.50
2024-01-06T18:55:10.870Z,93045.97
2024-01-06T19:00:14.002Z,93036.38
2024-01-06T19:05:17.062Z,93034.78
2024-01-06T19:10:18.616Z,93038.28
2024-01-06T19:15:20.509Z,93044.81
2024-01-06T19:20:23.596Z,93043.69
2024-01-06T19:25:25.205Z,93037.31
2024-01-06T19:30:26.892Z,93042.72
2024-01-06T19:35:29.865Z,93039.25
2024-01-06T19:40:31.500Z,93035.72
2024-01-06T19:45:33.171Z,93041.66
2024-01-06T19:50:36.200Z,93045.97
2024-01-06T19:55:37.804Z,93040.84
2024-01-06T20:00:39.558Z,93045.31
2024-01-06T20:05:42.590Z,93045.31
2024-01-06T20:10:44.175Z,93047.88
2024-01-06T20:15:45.829Z,93037.97
2024-01-06T20:20:48.776Z,93041.16
2024-01-06T20:25:50.608Z,93042.44
2024-01-06T20:30:52.462Z,93041.97
2024-01-06T20:35:55.535Z,93037.31
2024-01-06T20:40:57.196Z,93042.78
2024-01-06T20:45:58.774Z,93032.22
2024-01-06T20:51:01.750Z,93030.59
2024-01-06T20:56:03.525Z,93030.13
2024-01-06T21:01:05.141Z,93036.06
2024-01-06T21:06:08.341Z,93038.78
2024-01-06T21:11:09.961Z,93030.47
2024-01-06T21:16:11.594Z,93034.47
2024-01-06T21:21:15.370Z,93028.38
2024-01-06T21:26:16.951Z,93031.25
2024-01-06T21:31:18.677Z,93024.88
2024-01-06T21:36:21.887Z,93030.47
2024-01-06T21:41:23.720Z,93031.91
2024-01-06T21:46:25.371Z,93028.09
2024-01-06T21:51:28.268Z,93030.66
2024-01-06T21:56:29.811Z,93028.72
2024-01-06T22:01:31.523Z,93028.72
2024-01-06T22:06:34.543Z,93031.25
2024-01-06T22:11:37.526Z,93032.25
2024-01-06T22:16:39.118Z,93033.03
2024-01-06T22:21:44.775Z,93032.06
2024-01-06T22:26:48.043Z,93034.63
2024-01-06T22:31:49.900Z,93036.38
2024-01-06T22:36:53.011Z,93029.84
2024-01-06T22:41:54.610Z,93032.59
2024-01-06T22:46:56.242Z,93034.19
2024-01-06T22:51:59.435Z,93042.50
2024-01-06T22:57:01.041Z,93046.97
2024-01-06T23:02:02.672Z,93052.41
2024-01-06T23:07:06.774Z,93050.16
2024-01-06T23:12:08.428Z,93042.66
2024-01-06T23:17:10.050Z,93050.97
2024-01-06T23:22:13.009Z,93057.84
2024-01-06T23:27:14.691Z,93049.88
2024-01-06T23:32:16.356Z,93063.63
2024-01-06T23:37:19.260Z,93068.25
2024-01-06T23:42:20.862Z,93065.53
2024-01-06T23:47:22.636Z,93064.28
2024-01-06T23:52:26.846Z,93071.97
2024-01-06T23:57:28.520Z,93076.09
